Time;durP1;ratioP1;P1;durP2;ratioP2;P2;SDS_P1;SDS_P2;PMS_P1;PMS_P2;Temp;Humidity;BMP_temperature;BMP_pressure;BME280_temperature;BME280_humidity;BME280_pressure;Samples;Min_cycle;Max_cycle;Signal;HPM_P1;HPM_P2
2022/04/23 00:01:09;;;;;;;13.23;11.80;;;;;;;10.16;70.05;100469.94;4969192;28;20548;-66
2022/04/23 00:03:35;;;;;;;13.27;11.98;;;;;;;10.16;70.05;100477.72;4969163;28;20541;-66
2022/04/23 00:06:01;;;;;;;13.77;12.30;;;;;;;10.11;70.53;100473.72;4969281;28;20050;-66
2022/04/23 00:08:26;;;;;;;13.82;12.43;;;;;;;10.10;70.47;100482.44;4967183;28;20102;-66
2022/04/23 00:10:52;;;;;;;13.70;12.30;;;;;;;10.11;70.63;100478.91;4969527;28;20031;-65
2022/04/23 00:13:17;;;;;;;14.40;13.00;;;;;;;10.09;71.17;100486.00;4968933;28;20030;-65
2022/04/23 00:15:43;;;;;;;15.35;13.75;;;;;;;10.04;70.34;100466.63;4982604;28;20034;-65
2022/04/23 00:18:09;;;;;;;15.23;13.63;;;;;;;10.03;70.93;100480.50;4987879;28;20061;-66
2022/04/23 00:20:36;;;;;;;15.80;14.15;;;;;;;10.03;71.05;100476.13;4988412;28;20027;-66
2022/04/23 00:23:02;;;;;;;16.02;14.52;;;;;;;9.96;71.35;100467.25;4987249;28;20026;-66
2022/04/23 00:25:28;;;;;;;16.73;14.73;;;;;;;9.95;71.19;100468.19;4987883;28;20097;-66
2022/04/23 00:27:53;;;;;;;16.95;15.18;;;;;;;9.94;71.70;100466.56;4986759;28;20050;-66
2022/04/23 00:30:19;;;;;;;16.45;14.75;;;;;;;9.92;71.64;100472.81;4988198;28;20077;-67
2022/04/23 00:32:45;;;;;;;17.20;15.50;;;;;;;9.94;72.01;100470.94;4992211;28;20035;-67
2022/04/23 00:35:14;;;;;;;17.45;15.73;;;;;;;9.91;72.33;100466.00;4994932;28;20022;-66
2022/04/23 00:37:41;;;;;;;17.73;16.02;;;;;;;9.84;72.10;100455.34;5005135;28;20546;-67
2022/04/23 00:40:07;;;;;;;18.85;16.85;;;;;;;9.83;72.21;100466.66;4995658;28;20052;-66
2022/04/23 00:42:45;;;;;;;18.63;16.83;;;;;;;9.88;72.21;100469.69;5007589;28;20045;-66
2022/04/23 00:45:10;;;;;;;19.25;17.45;;;;;;;9.84;72.81;100470.88;4983659;28;20489;-66
2022/04/23 00:47:35;;;;;;;18.83;17.00;;;;;;;9.81;72.42;100469.38;4967023;28;20031;-67
2022/04/23 00:50:02;;;;;;;20.05;18.05;;;;;;;9.82;72.70;100472.78;5001728;28;20022;-67
2022/04/23 00:52:28;;;;;;;19.83;17.92;;;;;;;9.79;73.12;100467.84;4987190;28;20034;-66
2022/04/23 00:54:53;;;;;;;19.27;17.48;;;;;;;9.75;72.96;100461.31;4987705;28;20022;-67
2022/04/23 00:57:20;;;;;;;21.10;19.13;;;;;;;9.78;72.67;100467.03;5002362;28;20064;-66
2022/04/23 00:59:49;;;;;;;20.10;18.20;;;;;;;9.78;73.29;100466.22;4988090;28;20072;-66
2022/04/23 01:02:15;;;;;;;20.85;18.85;;;;;;;9.65;72.79;100458.66;4987590;28;20030;-66
2022/04/23 01:04:40;;;;;;;21.88;19.75;;;;;;;9.67;73.42;100453.34;4986273;28;20130;-66
2022/04/23 01:07:06;;;;;;;20.73;18.83;;;;;;;9.71;73.45;100465.09;4991243;28;20033;-66
2022/04/23 01:09:31;;;;;;;21.95;19.80;;;;;;;9.67;73.70;100464.50;4987333;28;20034;-66
2022/04/23 01:11:59;;;;;;;22.38;20.13;;;;;;;9.60;73.84;100462.56;4986111;28;20033;-66
2022/04/23 01:14:25;;;;;;;21.50;19.42;;;;;;;9.64;73.53;100469.16;4987183;28;20378;-66
2022/04/23 01:16:50;;;;;;;22.45;20.30;;;;;;;9.63;73.92;100467.47;4987602;28;20022;-66
2022/04/23 01:19:16;;;;;;;22.40;20.40;;;;;;;9.61;74.09;100474.56;4986488;28;20030;-66
2022/04/23 01:21:42;;;;;;;22.13;20.02;;;;;;;9.58;74.08;100471.28;4986862;28;20026;-66
2022/04/23 01:24:07;;;;;;;22.95;20.75;;;;;;;9.57;74.19;100469.63;4984685;28;20085;-69
2022/04/23 01:26:33;;;;;;;23.23;21.10;;;;;;;9.57;74.37;100474.81;4987034;28;20046;-67
2022/04/23 01:28:59;;;;;;;22.85;20.52;;;;;;;9.57;74.20;100479.16;4986591;28;20038;-66
2022/04/23 01:31:25;;;;;;;22.05;20.05;;;;;;;9.46;74.58;100467.13;4998280;28;20486;-67
2022/04/23 01:33:51;;;;;;;22.83;20.63;;;;;;;9.53;74.57;100483.78;4993573;28;20033;-66
2022/04/23 01:36:16;;;;;;;22.90;20.70;;;;;;;9.53;74.76;100478.63;5005905;28;20649;-66
2022/04/23 01:38:43;;;;;;;23.20;21.10;;;;;;;9.53;74.36;100481.22;5006188;28;20026;-68
2022/04/23 01:41:08;;;;;;;24.30;21.80;;;;;;;9.52;74.83;100476.97;5003169;28;20375;-66
2022/04/23 01:43:34;;;;;;;22.70;20.48;;;;;;;9.44;75.15;100469.00;5004790;28;20488;-66
2022/04/23 01:45:59;;;;;;;23.75;21.60;;;;;;;9.47;75.02;100473.94;4987461;28;20073;-66
2022/04/23 01:48:25;;;;;;;25.10;22.73;;;;;;;9.42;75.48;100478.69;4996698;28;20054;-66
2022/04/23 01:50:51;;;;;;;24.35;22.05;;;;;;;9.40;75.28;100474.56;4986164;28;20030;-65
2022/04/23 01:53:18;;;;;;;24.83;22.52;;;;;;;9.36;76.01;100486.94;4984701;28;20030;-65
2022/04/23 01:55:43;;;;;;;25.20;22.70;;;;;;;9.39;75.81;100485.88;4986061;28;20040;-66
2022/04/23 01:58:09;;;;;;;24.35;21.95;;;;;;;9.35;75.73;100472.38;4986370;28;20030;-67
2022/04/23 02:00:34;;;;;;;25.73;23.15;;;;;;;9.32;76.06;100482.97;4986573;28;20363;-66
2022/04/23 02:02:59;;;;;;;24.80;22.50;;;;;;;9.28;76.17;100484.97;4985837;28;20037;-66
2022/04/23 02:05:25;;;;;;;25.50;23.10;;;;;;;9.22;76.23;100474.31;5005594;28;20517;-67
2022/04/23 02:07:51;;;;;;;26.98;24.33;;;;;;;9.23;76.39;100473.34;5006051;28;20112;-66
2022/04/23 02:10:16;;;;;;;27.27;24.70;;;;;;;9.26;76.55;100480.88;5005761;28;20121;-65
2022/04/23 02:12:43;;;;;;;27.80;25.20;;;;;;;9.26;76.67;100484.28;4997222;28;20030;-66
2022/04/23 02:15:09;;;;;;;26.77;24.38;;;;;;;9.27;76.80;100485.91;4986033;28;20658;-66
2022/04/23 02:17:40;;;;;;;27.92;25.05;;;;;;;9.22;76.82;100484.66;4986752;28;20044;-66
2022/04/23 02:20:08;;;;;;;29.38;26.60;;;;;;;9.24;77.00;100482.78;4986531;28;20053;-66
2022/04/23 02:22:34;;;;;;;28.97;26.33;;;;;;;9.24;76.99;100482.78;4984934;28;20044;-66
2022/04/23 02:25:00;;;;;;;28.27;25.67;;;;;;;9.20;77.44;100476.19;4980573;28;20412;-66
2022/04/23 02:27:26;;;;;;;28.30;25.50;;;;;;;9.17;77.61;100477.25;4985044;28;20037;-67
2022/04/23 02:29:52;;;;;;;30.10;27.27;;;;;;;9.17;77.40;100473.84;4986745;28;20129;-66
2022/04/23 02:32:18;;;;;;;30.15;27.38;;;;;;;9.22;77.47;100487.25;4985314;28;20083;-67
2022/04/23 02:34:43;;;;;;;31.05;28.15;;;;;;;9.20;77.84;100481.38;4986284;28;20529;-66
2022/04/23 02:37:09;;;;;;;31.02;28.02;;;;;;;9.21;77.55;100480.44;4968047;28;20034;-66
2022/04/23 02:39:34;;;;;;;30.55;27.75;;;;;;;9.17;77.53;100476.44;4997166;28;20411;-67
2022/04/23 02:42:00;;;;;;;30.13;27.35;;;;;;;9.20;77.89;100478.78;4971013;28;20033;-66
2022/04/23 02:44:25;;;;;;;30.67;27.77;;;;;;;9.16;77.80;100485.16;4970728;28;20026;-69
2022/04/23 02:46:52;;;;;;;29.55;26.67;;;;;;;9.17;77.84;100486.78;4995553;28;20414;-67
2022/04/23 02:49:18;;;;;;;31.15;28.25;;;;;;;9.15;77.93;100473.16;4989511;28;20034;-67
2022/04/23 02:51:43;;;;;;;31.25;28.35;;;;;;;9.14;78.11;100481.88;5004908;28;20405;-66
2022/04/23 02:54:08;;;;;;;31.63;28.55;;;;;;;9.19;78.21;100474.56;4989110;28;20038;-66
2022/04/23 02:56:34;;;;;;;32.35;29.25;;;;;;;9.22;78.35;100479.47;4989616;28;20113;-66
2022/04/23 02:59:02;;;;;;;33.42;30.33;;;;;;;9.22;77.73;100471.72;4989804;28;20053;-65
2022/04/23 03:01:28;;;;;;;32.78;29.67;;;;;;;9.20;78.23;100465.84;4985858;28;20119;-66
2022/04/23 03:03:56;;;;;;;33.08;30.08;;;;;;;9.24;78.01;100472.44;4968081;28;20145;-66
2022/04/23 03:06:28;;;;;;;33.83;30.58;;;;;;;9.28;78.34;100473.78;5002121;28;20124;-66
2022/04/23 03:08:54;;;;;;;34.10;30.95;;;;;;;9.23;78.50;100470.75;4989691;28;20034;-67
2022/04/23 03:11:20;;;;;;;34.05;30.85;;;;;;;9.25;78.44;100474.88;4989628;28;20033;-66
2022/04/23 03:13:45;;;;;;;34.95;31.60;;;;;;;9.31;77.97;100474.38;4987709;28;20034;-66
2022/04/23 03:16:10;;;;;;;34.35;31.15;;;;;;;9.29;78.48;100467.69;5003808;28;20029;-66
2022/04/23 03:18:35;;;;;;;33.20;30.13;;;;;;;9.30;78.47;100461.56;5004372;28;20026;-66
2022/04/23 03:21:02;;;;;;;33.30;30.00;;;;;;;9.25;78.22;100463.72;4989411;28;20049;-66
2022/04/23 03:23:27;;;;;;;34.47;31.27;;;;;;;9.28;77.96;100479.78;4989153;28;20506;-66
2022/04/23 03:25:53;;;;;;;35.17;31.90;;;;;;;9.23;78.30;100476.78;4989375;28;20054;-66
2022/04/23 03:28:20;;;;;;;34.28;31.15;;;;;;;9.19;78.24;100461.63;4988668;28;20101;-66
2022/04/23 03:30:47;;;;;;;34.45;31.20;;;;;;;9.24;78.38;100478.41;4988434;28;20073;-66
2022/04/23 03:33:13;;;;;;;35.08;31.88;;;;;;;9.19;77.83;100459.88;4989075;28;20341;-66
2022/04/23 03:35:39;;;;;;;34.78;31.48;;;;;;;9.21;78.03;100473.47;5004482;28;20378;-66
2022/04/23 03:38:04;;;;;;;33.97;30.85;;;;;;;9.16;78.41;100465.28;4997474;28;20114;-65
2022/04/23 03:40:30;;;;;;;35.30;31.90;;;;;;;9.17;78.54;100466.09;5008824;28;20022;-65
2022/04/23 03:42:55;;;;;;;35.35;32.13;;;;;;;9.17;78.72;100471.25;4990498;28;20042;-66
2022/04/23 03:45:22;;;;;;;35.70;32.50;;;;;;;9.16;78.40;100464.44;4988820;28;20081;-67
2022/04/23 03:47:48;;;;;;;35.35;32.05;;;;;;;9.15;78.95;100462.81;4989825;28;20022;-66
2022/04/23 03:50:15;;;;;;;36.33;32.92;;;;;;;9.15;78.86;100465.41;4988819;28;20030;-66
2022/04/23 03:52:41;;;;;;;36.85;33.38;;;;;;;9.11;79.08;100466.59;4989516;28;20537;-66
2022/04/23 03:55:07;;;;;;;36.63;33.13;;;;;;;9.10;78.80;100464.94;4988581;28;20030;-66
2022/04/23 03:57:43;;;;;;;35.55;32.35;;;;;;;9.12;79.02;100458.72;4988964;28;20498;-68
2022/04/23 04:00:09;;;;;;;37.08;33.55;;;;;;;9.03;78.85;100449.13;4988468;28;20541;-66
2022/04/23 04:02:35;;;;;;;36.10;32.67;;;;;;;9.07;79.09;100455.69;4971948;28;20029;-66
2022/04/23 04:05:00;;;;;;;36.20;32.95;;;;;;;9.07;79.16;100455.69;4967774;28;20027;-66
2022/04/23 04:07:25;;;;;;;36.20;32.90;;;;;;;8.99;79.36;100458.88;4969335;28;20113;-66
2022/04/23 04:09:50;;;;;;;37.63;34.22;;;;;;;9.01;79.36;100456.19;4969405;28;20137;-66
2022/04/23 04:12:16;;;;;;;37.10;33.60;;;;;;;9.04;79.62;100459.31;4969111;28;20027;-66
2022/04/23 04:14:43;;;;;;;35.53;32.13;;;;;;;9.03;79.34;100460.28;4984824;28;20471;-66
2022/04/23 04:17:10;;;;;;;35.90;32.50;;;;;;;8.99;79.58;100458.88;4988884;28;20030;-66
2022/04/23 04:19:36;;;;;;;35.53;32.13;;;;;;;9.01;79.77;100451.84;4989087;28;20026;-66
2022/04/23 04:22:03;;;;;;;36.30;32.97;;;;;;;8.99;79.95;100448.53;4988572;28;20490;-66
2022/04/23 04:24:30;;;;;;;37.17;33.78;;;;;;;8.96;80.21;100448.78;4986800;28;20049;-66
2022/04/23 04:26:56;;;;;;;37.13;33.72;;;;;;;8.94;79.71;100440.31;4988579;28;20033;-66
2022/04/23 04:29:21;;;;;;;35.67;32.33;;;;;;;8.91;79.76;100429.41;4988103;28;20127;-67
2022/04/23 04:31:47;;;;;;;36.40;33.17;;;;;;;8.93;80.09;100449.03;4988542;28;20474;-66
2022/04/23 04:34:28;;;;;;;37.85;34.45;;;;;;;8.90;80.23;100444.13;4986196;28;20033;-66
2022/04/23 04:37:03;;;;;;;35.95;32.53;;;;;;;8.88;80.31;100448.56;4988331;28;20513;-66
2022/04/23 04:39:29;;;;;;;36.20;32.92;;;;;;;8.87;80.03;100446.13;4987415;28;20061;-67
2022/04/23 04:41:54;;;;;;;36.33;33.08;;;;;;;8.83;80.13;100437.81;4988133;28;20459;-66
2022/04/23 04:44:20;;;;;;;36.15;32.70;;;;;;;8.83;80.17;100432.63;4987341;28;20018;-66
2022/04/23 04:46:45;;;;;;;36.05;32.55;;;;;;;8.87;80.38;100428.00;4987223;28;20058;-66
2022/04/23 04:49:10;;;;;;;36.45;33.13;;;;;;;8.85;80.50;100441.06;4986827;28;20441;-65
2022/04/23 04:51:36;;;;;;;36.58;33.17;;;;;;;8.85;80.72;100446.25;4986744;28;20029;-67
2022/04/23 04:54:05;;;;;;;35.67;32.28;;;;;;;8.87;80.32;100444.34;4986077;28;20027;-67
2022/04/23 04:56:31;;;;;;;37.25;33.85;;;;;;;8.86;80.73;100436.72;4986418;28;20478;-67
2022/04/23 04:58:56;;;;;;;37.75;34.35;;;;;;;8.77;80.98;100433.09;4981947;28;20337;-67
2022/04/23 05:01:22;;;;;;;37.65;34.20;;;;;;;8.86;80.33;100439.31;4985410;28;20109;-66
2022/04/23 05:03:47;;;;;;;35.85;32.58;;;;;;;8.86;80.56;100441.91;4985958;28;20042;-66
2022/04/23 05:06:13;;;;;;;37.38;33.78;;;;;;;8.86;80.73;100442.72;4986036;28;20030;-66
2022/04/23 05:08:38;;;;;;;38.20;34.78;;;;;;;8.86;80.55;100442.72;4987633;28;20072;-66
2022/04/23 05:11:04;;;;;;;36.22;32.92;;;;;;;8.86;80.40;100447.88;5002422;28;20049;-66
2022/04/23 05:13:30;;;;;;;38.53;35.03;;;;;;;8.78;81.18;100445.09;4985352;28;20650;-66
2022/04/23 05:15:56;;;;;;;38.22;34.83;;;;;;;8.90;81.03;100458.81;4986347;28;20486;-66
2022/04/23 05:18:22;;;;;;;36.13;32.83;;;;;;;8.84;80.58;100443.78;4985413;28;20049;-66
2022/04/23 05:20:47;;;;;;;37.72;34.33;;;;;;;8.90;80.66;100459.63;4987557;28;20145;-66
2022/04/23 05:23:13;;;;;;;37.15;33.83;;;;;;;8.89;80.80;100455.41;4986826;28;20034;-66
2022/04/23 05:25:39;;;;;;;36.47;33.08;;;;;;;8.94;80.69;100450.66;4987314;28;20054;-67
2022/04/23 05:28:04;;;;;;;37.25;33.95;;;;;;;8.94;80.49;100455.00;4987244;28;20494;-65
2022/04/23 05:30:29;;;;;;;37.30;33.90;;;;;;;8.89;81.00;100451.97;5001987;28;20038;-65
2022/04/23 05:32:55;;;;;;;36.40;33.00;;;;;;;8.95;80.31;100452.31;4987022;28;20117;-67
2022/04/23 05:35:20;;;;;;;36.33;33.03;;;;;;;8.96;80.69;100459.13;4987171;28;20026;-67
2022/04/23 05:37:46;;;;;;;37.42;34.13;;;;;;;8.98;80.57;100457.25;4993459;28;20481;-65
2022/04/23 05:40:11;;;;;;;37.58;34.17;;;;;;;9.01;80.40;100444.06;5004186;28;20105;-65
2022/04/23 05:42:37;;;;;;;36.60;33.45;;;;;;;9.00;80.53;100450.19;4986808;28;20061;-65
2022/04/23 05:45:03;;;;;;;37.72;34.28;;;;;;;9.02;80.46;100463.81;4985316;28;20037;-65
2022/04/23 05:47:28;;;;;;;35.45;32.25;;;;;;;9.07;80.43;100457.44;4958077;28;20507;-65
2022/04/23 05:49:53;;;;;;;34.83;31.65;;;;;;;9.12;79.49;100457.88;4982191;28;20489;-66
2022/04/23 05:52:19;;;;;;;35.85;32.58;;;;;;;9.14;79.89;100458.59;4985896;28;20049;-65
2022/04/23 05:54:44;;;;;;;35.95;32.75;;;;;;;9.17;80.35;100460.91;4986451;28;20038;-66
2022/04/23 05:57:10;;;;;;;34.63;31.42;;;;;;;9.20;79.79;100460.69;4985434;28;20440;-65
2022/04/23 05:59:35;;;;;;;35.28;32.08;;;;;;;9.20;79.85;100465.84;4984359;28;20064;-67
2022/04/23 06:02:00;;;;;;;35.50;32.30;;;;;;;9.22;79.57;100454.41;4984969;28;20050;-65
2022/04/23 06:04:26;;;;;;;34.10;30.98;;;;;;;9.23;79.58;100460.41;4982764;28;20026;-65
2022/04/23 06:06:52;;;;;;;36.67;33.33;;;;;;;9.24;79.19;100451.72;4982885;28;20026;-67
2022/04/23 06:09:17;;;;;;;34.63;31.52;;;;;;;9.32;79.36;100470.84;4983561;28;20528;-65
2022/04/23 06:11:42;;;;;;;33.42;30.25;;;;;;;9.32;78.68;100454.50;4981730;28;20038;-65
2022/04/23 06:14:08;;;;;;;33.75;30.65;;;;;;;9.32;78.74;100454.50;4976895;28;20026;-68
2022/04/23 06:16:34;;;;;;;33.65;30.75;;;;;;;9.37;79.34;100457.53;4971187;28;20030;-65
2022/04/23 06:19:00;;;;;;;34.50;31.40;;;;;;;9.40;78.94;100462.44;4979529;28;20137;-66
2022/04/23 06:21:25;;;;;;;34.33;31.30;;;;;;;9.43;78.96;100459.59;4977385;28;20038;-65
2022/04/23 06:23:50;;;;;;;34.92;31.83;;;;;;;9.45;78.98;100449.94;4984812;28;20034;-66
2022/04/23 06:26:16;;;;;;;34.30;31.30;;;;;;;9.44;79.25;100452.66;4983249;28;20034;-66
2022/04/23 06:28:41;;;;;;;34.47;31.38;;;;;;;9.52;78.71;100451.09;4985318;28;20053;-66
2022/04/23 06:31:07;;;;;;;35.10;32.00;;;;;;;9.52;78.87;100456.28;4985731;28;20486;-65
2022/04/23 06:33:32;;;;;;;35.08;31.88;;;;;;;9.60;78.83;100449.63;4984794;28;20053;-68
2022/04/23 06:35:58;;;;;;;33.92;30.92;;;;;;;9.61;78.80;100440.91;4985548;28;20052;-65
2022/04/23 06:38:24;;;;;;;33.83;30.83;;;;;;;9.66;78.72;100443.94;4997051;28;20096;-66
2022/04/23 06:40:49;;;;;;;34.17;31.23;;;;;;;9.69;79.04;100448.84;5001506;28;20490;-65
2022/04/23 06:43:14;;;;;;;33.65;30.65;;;;;;;9.73;78.78;100452.81;4993872;28;20044;-65
2022/04/23 06:45:40;;;;;;;32.80;29.88;;;;;;;9.74;77.71;100449.28;4985232;28;21273;-66
2022/04/23 06:48:05;;;;;;;34.35;31.33;;;;;;;9.76;78.21;100435.28;4985392;28;20083;-65
2022/04/23 06:50:32;;;;;;;34.28;31.30;;;;;;;9.81;78.79;100442.66;4984294;28;20487;-65
2022/04/23 06:53:01;;;;;;;34.10;30.95;;;;;;;9.90;77.93;100441.03;4983527;28;20046;-65
2022/04/23 06:55:27;;;;;;;32.92;29.92;;;;;;;9.94;77.34;100440.66;4964860;28;20230;-66
2022/04/23 06:57:53;;;;;;;34.53;31.50;;;;;;;9.98;77.76;100447.22;4985079;28;20499;-66
2022/04/23 07:00:21;;;;;;;33.22;30.17;;;;;;;10.04;77.91;100443.28;4985469;28;20161;-66
2022/04/23 07:02:46;;;;;;;33.50;30.63;;;;;;;10.11;77.12;100441.81;4984566;28;20030;-65
2022/04/23 07:05:12;;;;;;;34.00;30.90;;;;;;;10.14;77.16;100445.91;4975754;28;20296;-65
2022/04/23 07:07:37;;;;;;;33.92;31.00;;;;;;;10.16;76.85;100441.41;4985062;28;20030;-66
2022/04/23 07:10:03;;;;;;;33.47;30.48;;;;;;;10.25;77.29;100444.06;4984263;28;20119;-66
2022/04/23 07:12:29;;;;;;;33.90;31.00;;;;;;;10.31;77.09;100432.34;4983559;28;20097;-65
2022/04/23 07:14:54;;;;;;;33.00;29.90;;;;;;;10.31;77.13;100434.94;4983574;28;20463;-65
2022/04/23 07:17:24;;;;;;;33.67;30.70;;;;;;;10.42;76.53;100434.00;4983191;28;20037;-65
2022/04/23 07:19:51;;;;;;;34.03;31.13;;;;;;;10.55;76.62;100443.19;4984652;28;20060;-65
2022/04/23 07:22:17;;;;;;;33.67;30.83;;;;;;;10.55;75.23;100445.78;4984557;28;20038;-65
2022/04/23 07:24:42;;;;;;;32.83;29.85;;;;;;;10.60;75.62;100456.53;4985921;28;20398;-66
2022/04/23 07:27:07;;;;;;;33.00;30.00;;;;;;;10.62;75.07;100431.31;4988957;28;20030;-66
2022/04/23 07:29:33;;;;;;;32.22;29.38;;;;;;;10.70;76.06;100435.00;4988265;28;20042;-66
2022/04/23 07:31:58;;;;;;;32.75;29.77;;;;;;;10.68;74.21;100431.72;4988955;28;20049;-65
2022/04/23 07:39:51;;;;;;;31.38;28.65;;;;;;;10.94;74.23;100426.81;4996347;28;20092;-68
2022/04/23 07:42:17;;;;;;;31.85;28.95;;;;;;;10.98;73.85;100436.78;5008323;28;20026;-65
2022/04/23 07:44:42;;;;;;;31.50;28.50;;;;;;;10.95;73.84;100424.06;4999089;28;20497;-66
2022/04/23 07:47:08;;;;;;;31.15;28.35;;;;;;;11.05;74.77;100443.06;4988897;28;20425;-67
2022/04/23 07:49:33;;;;;;;31.48;28.70;;;;;;;11.06;73.71;100429.13;4989460;28;20162;-67
2022/04/23 07:51:59;;;;;;;31.10;28.40;;;;;;;11.15;74.03;100428.28;4988657;28;20414;-67
2022/04/23 07:54:25;;;;;;;30.90;28.30;;;;;;;11.16;73.77;100424.75;4986070;28;20438;-66
2022/04/23 07:56:50;;;;;;;31.30;28.50;;;;;;;11.22;73.66;100425.13;4989272;28;20041;-67
2022/04/23 07:59:15;;;;;;;31.27;28.58;;;;;;;11.27;73.13;100425.56;4979491;28;20137;-66
2022/04/23 08:01:41;;;;;;;31.85;29.05;;;;;;;11.29;73.43;100413.25;4969852;28;20034;-66
2022/04/23 08:04:06;;;;;;;31.38;28.45;;;;;;;11.46;73.17;100415.09;4969492;28;20023;-66
2022/04/23 08:06:32;;;;;;;32.28;29.35;;;;;;;11.53;72.77;100420.59;4968867;28;20033;-66
2022/04/23 08:08:59;;;;;;;31.48;28.67;;;;;;;11.62;72.66;100419.72;4969053;28;20058;-67
2022/04/23 08:11:25;;;;;;;32.15;29.25;;;;;;;11.68;72.12;100408.75;4977997;28;20136;-66
2022/04/23 08:13:51;;;;;;;32.70;29.77;;;;;;;11.81;72.78;100408.44;4986971;28;20526;-66
2022/04/23 08:16:17;;;;;;;31.95;29.05;;;;;;;11.84;71.70;100415.97;4987673;28;20463;-66
2022/04/23 08:18:42;;;;;;;32.33;29.23;;;;;;;11.95;72.47;100405.41;4987901;28;20057;-66
2022/04/23 08:21:07;;;;;;;31.40;28.60;;;;;;;12.05;72.23;100410.56;4986230;28;20474;-67
2022/04/23 08:23:33;;;;;;;74.55;31.20;;;;;;;12.09;71.19;100397.09;4988080;28;20034;-65
2022/04/23 08:26:00;;;;;;;30.63;27.73;;;;;;;12.18;71.49;100398.84;4986457;28;20406;-67
2022/04/23 08:31:12;;;;;;;31.10;28.30;;;;;;;12.38;71.30;100406.50;4988116;28;20525;-66
2022/04/23 08:36:22;;;;;;;30.90;28.10;;;;;;;12.52;69.81;100397.41;4986750;28;20109;-66
2022/04/23 08:38:47;;;;;;;33.05;29.92;;;;;;;12.63;70.05;100403.19;4984099;28;20033;-65
2022/04/23 08:41:13;;;;;;;31.75;28.85;;;;;;;12.83;69.23;100400.44;5005610;28;20030;-65
2022/04/23 08:43:41;;;;;;;31.02;28.05;;;;;;;12.98;69.13;100396.34;5008183;28;20467;-66
2022/04/23 08:46:06;;;;;;;31.25;28.55;;;;;;;13.13;67.50;100392.22;5007677;28;20044;-65
2022/04/23 08:48:37;;;;;;;31.98;29.00;;;;;;;13.18;66.99;100397.78;4988058;28;20113;-65
2022/04/23 08:51:03;;;;;;;31.10;28.30;;;;;;;13.20;67.26;100398.44;4987470;28;20057;-66
2022/04/23 08:53:31;;;;;;;31.60;28.70;;;;;;;13.23;66.11;100397.34;4987173;28;20034;-66
2022/04/23 08:55:57;;;;;;;31.98;29.17;;;;;;;13.39;66.89;100388.81;4985800;28;20067;-66
2022/04/23 08:58:23;;;;;;;32.15;28.92;;;;;;;13.49;64.15;100397.34;4986311;28;20463;-65
2022/04/23 09:00:49;;;;;;;31.23;28.40;;;;;;;13.45;63.90;100386.41;4968564;28;20038;-66
2022/04/23 09:03:16;;;;;;;30.58;27.70;;;;;;;13.53;63.99;100396.06;4975141;28;20101;-67
2022/04/23 09:05:43;;;;;;;30.60;27.80;;;;;;;13.41;62.71;100398.09;4985945;28;20491;-66
2022/04/23 09:08:09;;;;;;;29.63;26.77;;;;;;;13.27;62.57;100396.91;4986749;28;20030;-66
2022/04/23 09:10:46;;;;;;;32.20;29.23;;;;;;;13.21;64.17;100389.69;4987774;28;20044;-65
2022/04/23 09:13:25;;;;;;;31.17;28.27;;;;;;;13.31;64.34;100404.41;4986999;28;20042;-66
2022/04/23 09:24:42;;;;;;;30.42;27.63;;;;;;;13.58;62.20;100400.81;4986245;28;20085;-66
2022/04/23 09:27:08;;;;;;;31.48;28.63;;;;;;;13.58;61.99;100401.63;4986471;28;20026;-66
2022/04/23 09:29:33;;;;;;;31.10;28.27;;;;;;;13.70;63.19;100395.16;4986592;28;20042;-66
2022/04/23 09:32:14;;;;;;;31.27;28.40;;;;;;;13.78;62.52;100392.63;4987446;28;20034;-66
2022/04/23 09:34:40;;;;;;;33.22;30.20;;;;;;;14.07;63.14;100396.63;4986276;28;20378;-66
2022/04/23 09:37:06;;;;;;;31.83;28.83;;;;;;;14.16;61.67;100395.66;4987502;28;20474;-66
2022/04/23 09:39:34;;;;;;;32.40;29.40;;;;;;;14.22;62.26;100389.84;5005133;28;20033;-65
2022/04/23 09:42:17;;;;;;;29.88;27.15;;;;;;;14.32;61.13;100395.72;5006809;28;20112;-65
2022/04/23 09:44:47;;;;;;;30.85;27.90;;;;;;;14.40;59.63;100394.13;4986212;28;20022;-66
2022/04/23 09:47:31;;;;;;;28.73;25.92;;;;;;;14.49;60.05;100396.59;4986175;28;20498;-66
2022/04/23 09:49:57;;;;;;;30.92;27.92;;;;;;;14.58;59.95;100385.19;4985744;28;20037;-66
2022/04/23 09:52:28;;;;;;;31.92;28.95;;;;;;;14.67;60.43;100387.78;4986759;28;20142;-66
2022/04/23 09:54:59;;;;;;;30.73;27.83;;;;;;;14.77;60.08;100386.66;4987003;28;20069;-66
2022/04/23 09:57:26;;;;;;;30.67;27.80;;;;;;;14.84;59.45;100385.03;4986790;28;20475;-66
2022/04/23 09:59:52;;;;;;;30.75;27.75;;;;;;;14.94;59.44;100378.84;4985657;28;20030;-65
2022/04/23 10:02:21;;;;;;;30.13;27.17;;;;;;;14.93;57.88;100382.44;4967848;28;20422;-66
2022/04/23 10:04:46;;;;;;;30.45;27.55;;;;;;;14.85;57.85;100373.63;4967901;28;20023;-66
2022/04/23 10:07:17;;;;;;;30.63;27.40;;;;;;;14.84;57.25;100379.81;4967182;28;20031;-66
2022/04/23 10:09:45;;;;;;;30.92;27.88;;;;;;;14.98;57.49;100395.81;4982553;28;20057;-65
2022/04/23 10:12:16;;;;;;;30.83;27.77;;;;;;;15.00;56.89;100383.41;4985958;28;20030;-66
2022/04/23 10:14:56;;;;;;;30.50;27.45;;;;;;;15.03;57.33;100377.84;4986977;28;20038;-66
2022/04/23 10:17:24;;;;;;;31.65;28.50;;;;;;;15.11;57.55;100391.72;4985937;28;20042;-66
2022/04/23 10:19:50;;;;;;;31.52;28.52;;;;;;;15.27;57.78;100375.19;4998776;28;20042;-66
2022/04/23 10:22:25;;;;;;;31.58;28.30;;;;;;;15.33;56.76;100392.81;4985348;28;20386;-66
2022/04/23 10:25:06;;;;;;;30.67;27.55;;;;;;;15.29;56.46;100386.28;4984706;28;20049;-66
2022/04/23 10:27:33;;;;;;;31.10;28.15;;;;;;;15.35;56.14;100388.22;4984057;28;20073;-66
2022/04/23 10:30:04;;;;;;;31.93;29.03;;;;;;;15.40;56.23;100385.94;4986005;28;20064;-66
2022/04/23 10:32:39;;;;;;;30.67;27.77;;;;;;;15.36;55.93;100379.41;4984117;28;20297;-66
2022/04/23 10:35:24;;;;;;;30.83;27.83;;;;;;;15.46;57.59;100383.66;4985416;28;20030;-67
2022/04/23 10:37:50;;;;;;;30.85;27.95;;;;;;;15.49;56.25;100378.09;4982276;28;20073;-66
2022/04/23 10:40:19;;;;;;;30.98;27.88;;;;;;;15.34;55.98;100380.56;4996551;28;20518;-66
2022/04/23 10:43:03;;;;;;;30.73;27.83;;;;;;;15.48;57.42;100377.25;5006011;28;20068;-66
2022/04/23 10:45:37;;;;;;;31.00;28.02;;;;;;;15.65;56.09;100378.06;5020575;28;20354;-66
2022/04/23 10:48:24;;;;;;;29.67;26.98;;;;;;;15.76;55.81;100377.69;4994666;28;20203;-66
2022/04/23 10:51:02;;;;;;;30.15;27.15;;;;;;;15.95;56.13;100375.66;4985828;28;20634;-68
2022/04/23 10:53:48;;;;;;;30.17;27.35;;;;;;;16.02;54.81;100384.44;4981535;28;20066;-67
2022/04/23 10:56:16;;;;;;;29.52;26.48;;;;;;;16.07;53.86;100382.94;4966464;28;20027;-67
2022/04/23 10:58:42;;;;;;;31.45;28.58;;;;;;;16.13;54.19;100376.22;4975456;28;20037;-67
2022/04/23 11:01:23;;;;;;;28.25;25.52;;;;;;;16.21;54.36;100373.53;4987663;28;20026;-67
2022/04/23 11:03:56;;;;;;;29.60;26.70;;;;;;;16.35;54.25;100374.63;4988473;28;20054;-67
2022/04/23 11:12:34;;;;;;;29.60;26.70;;;;;;;16.42;53.74;100372.94;4979446;28;20037;-68
2022/04/23 11:15:01;;;;;;;29.05;26.35;;;;;;;16.57;53.57;100365.13;4988254;28;20022;-67
2022/04/23 11:17:30;;;;;;;29.23;26.35;;;;;;;16.56;52.12;100363.50;4989520;28;20038;-67
2022/04/23 11:19:55;;;;;;;29.83;27.08;;;;;;;16.59;53.03;100360.53;4990145;28;20470;-67
2022/04/23 11:22:22;;;;;;;30.17;27.25;;;;;;;16.53;52.26;100361.25;4989714;28;20379;-67
2022/04/23 11:24:49;;;;;;;29.30;26.40;;;;;;;16.60;52.42;100356.91;4989119;28;20423;-67
2022/04/23 11:27:32;;;;;;;28.67;25.98;;;;;;;16.68;51.30;100343.75;4988531;28;20474;-66
2022/04/23 11:29:59;;;;;;;28.58;25.70;;;;;;;16.71;50.47;100349.50;4988216;28;20057;-67
2022/04/23 11:32:28;;;;;;;28.42;25.70;;;;;;;16.80;51.28;100352.84;4987608;28;20038;-67
2022/04/23 11:35:04;;;;;;;27.67;24.90;;;;;;;16.84;50.72;100351.50;4989657;28;20045;-67
2022/04/23 11:37:37;;;;;;;27.50;24.85;;;;;;;16.97;51.24;100359.59;4992512;28;20517;-68
2022/04/23 11:40:12;;;;;;;27.52;24.83;;;;;;;16.85;50.63;100342.66;5008695;28;20402;-67